sensor_id;sensor_type;location;lat;lon;timestamp;pressure;altitude;pressure_sealevel;temperature;humidity
18749;BME280;9503;53.560;10.246;2023-03-23T00:02:28;99655.09;;;14.59;99.31
18749;BME280;9503;53.560;10.246;2023-03-23T00:04:56;99661.47;;;14.28;100.00
18749;BME280;9503;53.560;10.246;2023-03-23T00:07:23;99661.16;;;14.09;100.00
18749;BME280;9503;53.560;10.246;2023-03-23T00:09:53;99661.59;;;13.84;100.00
18749;BME280;9503;53.560;10.246;2023-03-23T00:12:20;99666.13;;;13.08;100.00
18749;BME280;9503;53.560;10.246;2023-03-23T00:14:58;99650.31;;;13.77;100.00
18749;BME280;9503;53.560;10.246;2023-03-23T00:17:26;99650.38;;;13.80;100.00
18749;BME280;9503;53.560;10.246;2023-03-23T00:19:53;99646.91;;;13.32;100.00
18749;BME280;9503;53.560;10.246;2023-03-23T00:22:21;99648.31;;;13.61;100.00
18749;BME280;9503;53.560;10.246;2023-03-23T00:24:50;99649.94;;;13.56;100.00
18749;BME280;9503;53.560;10.246;2023-03-23T00:27:18;99653.97;;;13.89;100.00
18749;BME280;9503;53.560;10.246;2023-03-23T00:29:47;99658.88;;;14.26;100.00
18749;BME280;9503;53.560;10.246;2023-03-23T00:32:21;99654.91;;;13.95;100.00
18749;BME280;9503;53.560;10.246;2023-03-23T00:34:52;99643.22;;;14.14;100.00
18749;BME280;9503;53.560;10.246;2023-03-23T00:37:20;99642.63;;;13.32;100.00
18749;BME280;9503;53.560;10.246;2023-03-23T00:39:48;99640.50;;;13.14;100.00
18749;BME280;9503;53.560;10.246;2023-03-23T00:42:17;99649.34;;;13.71;100.00
18749;BME280;9503;53.560;10.246;2023-03-23T00:44:44;99641.34;;;13.57;100.00
18749;BME280;9503;53.560;10.246;2023-03-23T00:47:11;99638.66;;;13.49;100.00
18749;BME280;9503;53.560;10.246;2023-03-23T00:49:38;99631.75;;;13.48;100.00
18749;BME280;9503;53.560;10.246;2023-03-23T00:52:07;99636.78;;;13.42;100.00
18749;BME280;9503;53.560;10.246;2023-03-23T00:54:35;99628.03;;;13.33;100.00
18749;BME280;9503;53.560;10.246;2023-03-23T00:57:03;99622.00;;;13.79;100.00
18749;BME280;9503;53.560;10.246;2023-03-23T00:59:30;99613.25;;;13.69;100.00
18749;BME280;9503;53.560;10.246;2023-03-23T01:01:56;99597.03;;;13.26;100.00
18749;BME280;9503;53.560;10.246;2023-03-23T01:04:23;99583.44;;;13.34;100.00
18749;BME280;9503;53.560;10.246;2023-03-23T01:06:50;99582.25;;;13.63;100.00
18749;BME280;9503;53.560;10.246;2023-03-23T01:09:18;99570.56;;;13.83;100.00
18749;BME280;9503;53.560;10.246;2023-03-23T01:11:48;99583.13;;;13.65;100.00
18749;BME280;9503;53.560;10.246;2023-03-23T01:14:17;99585.94;;;13.79;100.00
18749;BME280;9503;53.560;10.246;2023-03-23T01:16:44;99566.50;;;13.98;100.00
18749;BME280;9503;53.560;10.246;2023-03-23T01:19:11;99572.13;;;13.74;100.00
18749;BME280;9503;53.560;10.246;2023-03-23T01:21:38;99570.59;;;13.85;100.00
18749;BME280;9503;53.560;10.246;2023-03-23T01:24:06;99561.91;;;13.80;100.00
18749;BME280;9503;53.560;10.246;2023-03-23T01:26:33;99551.56;;;13.77;100.00
18749;BME280;9503;53.560;10.246;2023-03-23T01:29:01;99547.00;;;13.59;100.00
18749;BME280;9503;53.560;10.246;2023-03-23T01:31:27;99535.13;;;13.70;100.00
18749;BME280;9503;53.560;10.246;2023-03-23T01:33:54;99522.16;;;13.64;100.00
18749;BME280;9503;53.560;10.246;2023-03-23T01:36:23;99533.50;;;13.75;100.00
18749;BME280;9503;53.560;10.246;2023-03-23T01:38:51;99539.50;;;13.74;100.00
18749;BME280;9503;53.560;10.246;2023-03-23T01:41:19;99534.19;;;13.65;100.00
18749;BME280;9503;53.560;10.246;2023-03-23T01:44:02;99535.38;;;13.86;100.00
18749;BME280;9503;53.560;10.246;2023-03-23T01:46:31;99539.31;;;13.62;100.00
18749;BME280;9503;53.560;10.246;2023-03-23T01:49:00;99525.28;;;13.98;100.00
18749;BME280;9503;53.560;10.246;2023-03-23T01:51:32;99528.97;;;13.61;100.00
18749;BME280;9503;53.560;10.246;2023-03-23T01:54:05;99534.16;;;13.62;100.00
18749;BME280;9503;53.560;10.246;2023-03-23T01:56:36;99527.03;;;13.47;100.00
18749;BME280;9503;53.560;10.246;2023-03-23T01:59:07;99526.59;;;13.73;100.00
18749;BME280;9503;53.560;10.246;2023-03-23T02:01:36;99525.88;;;13.81;100.00
18749;BME280;9503;53.560;10.246;2023-03-23T02:04:06;99517.91;;;13.66;100.00
18749;BME280;9503;53.560;10.246;2023-03-23T02:06:37;99507.88;;;13.85;100.00
18749;BME280;9503;53.560;10.246;2023-03-23T02:09:03;99511.34;;;13.87;100.00
18749;BME280;9503;53.560;10.246;2023-03-23T02:11:31;99504.72;;;13.46;100.00
18749;BME280;9503;53.560;10.246;2023-03-23T02:13:58;99493.72;;;13.58;100.00
18749;BME280;9503;53.560;10.246;2023-03-23T02:16:33;99501.09;;;13.90;100.00
18749;BME280;9503;53.560;10.246;2023-03-23T02:19:36;99510.94;;;13.59;100.00
18749;BME280;9503;53.560;10.246;2023-03-23T02:22:29;99499.88;;;13.66;100.00
18749;BME280;9503;53.560;10.246;2023-03-23T02:25:25;99502.31;;;13.59;100.00
18749;BME280;9503;53.560;10.246;2023-03-23T02:28:19;99497.47;;;13.78;100.00
18749;BME280;9503;53.560;10.246;2023-03-23T02:31:09;99500.03;;;13.77;100.00
18749;BME280;9503;53.560;10.246;2023-03-23T02:33:47;99496.09;;;13.44;100.00
18749;BME280;9503;53.560;10.246;2023-03-23T02:36:20;99497.72;;;13.94;100.00
18749;BME280;9503;53.560;10.246;2023-03-23T02:38:56;99496.53;;;13.73;100.00
18749;BME280;9503;53.560;10.246;2023-03-23T02:41:28;99493.16;;;13.76;100.00
18749;BME280;9503;53.560;10.246;2023-03-23T02:43:57;99489.72;;;13.75;100.00
18749;BME280;9503;53.560;10.246;2023-03-23T02:46:25;99492.09;;;13.63;100.00
18749;BME280;9503;53.560;10.246;2023-03-23T02:48:55;99479.47;;;13.80;100.00
18749;BME280;9503;53.560;10.246;2023-03-23T02:51:24;99476.66;;;13.65;100.00
18749;BME280;9503;53.560;10.246;2023-03-23T02:53:53;99480.19;;;13.71;100.00
18749;BME280;9503;53.560;10.246;2023-03-23T02:56:25;99473.50;;;13.81;100.00
18749;BME280;9503;53.560;10.246;2023-03-23T02:58:53;99470.09;;;13.85;100.00
18749;BME280;9503;53.560;10.246;2023-03-23T03:01:58;99485.75;;;13.97;100.00
18749;BME280;9503;53.560;10.246;2023-03-23T03:04:28;99468.47;;;13.90;100.00
18749;BME280;9503;53.560;10.246;2023-03-23T03:07:37;99460.22;;;14.16;100.00
18749;BME280;9503;53.560;10.246;2023-03-23T03:10:10;99469.56;;;14.09;100.00
18749;BME280;9503;53.560;10.246;2023-03-23T03:12:46;99463.63;;;14.15;100.00
18749;BME280;9503;53.560;10.246;2023-03-23T03:15:24;99463.63;;;14.12;100.00
18749;BME280;9503;53.560;10.246;2023-03-23T03:17:58;99457.41;;;13.97;100.00
18749;BME280;9503;53.560;10.246;2023-03-23T03:20:31;99455.81;;;13.48;100.00
18749;BME280;9503;53.560;10.246;2023-03-23T03:22:59;99469.13;;;13.22;100.00
18749;BME280;9503;53.560;10.246;2023-03-23T03:25:27;99449.25;;;13.67;100.00
18749;BME280;9503;53.560;10.246;2023-03-23T03:27:55;99449.69;;;13.43;100.00
18749;BME280;9503;53.560;10.246;2023-03-23T03:30:25;99436.28;;;13.64;100.00
18749;BME280;9503;53.560;10.246;2023-03-23T03:32:56;99426.06;;;13.67;100.00
18749;BME280;9503;53.560;10.246;2023-03-23T03:35:25;99405.38;;;13.64;100.00
18749;BME280;9503;53.560;10.246;2023-03-23T03:37:54;99412.44;;;13.74;100.00
18749;BME280;9503;53.560;10.246;2023-03-23T03:40:22;99414.03;;;13.67;100.00
18749;BME280;9503;53.560;10.246;2023-03-23T03:42:49;99426.13;;;13.73;100.00
18749;BME280;9503;53.560;10.246;2023-03-23T03:45:18;99411.81;;;13.93;100.00
18749;BME280;9503;53.560;10.246;2023-03-23T03:47:45;99392.50;;;13.64;100.00
18749;BME280;9503;53.560;10.246;2023-03-23T03:50:11;99394.28;;;13.66;100.00
18749;BME280;9503;53.560;10.246;2023-03-23T03:52:38;99389.59;;;13.39;100.00
18749;BME280;9503;53.560;10.246;2023-03-23T03:55:08;99383.72;;;13.48;100.00
18749;BME280;9503;53.560;10.246;2023-03-23T03:57:35;99389.13;;;13.66;100.00
18749;BME280;9503;53.560;10.246;2023-03-23T04:00:03;99400.56;;;13.29;100.00
18749;BME280;9503;53.560;10.246;2023-03-23T04:02:39;99402.91;;;13.15;100.00
18749;BME280;9503;53.560;10.246;2023-03-23T04:05:07;99406.25;;;13.64;100.00
18749;BME280;9503;53.560;10.246;2023-03-23T04:07:35;99415.44;;;13.47;100.00
18749;BME280;9503;53.560;10.246;2023-03-23T04:10:04;99411.06;;;13.41;100.00
18749;BME280;9503;53.560;10.246;2023-03-23T04:12:32;99410.84;;;13.87;100.00
18749;BME280;9503;53.560;10.246;2023-03-23T04:14:58;99404.16;;;13.37;100.00
18749;BME280;9503;53.560;10.246;2023-03-23T04:17:25;99408.25;;;13.82;100.00
18749;BME280;9503;53.560;10.246;2023-03-23T04:19:52;99394.53;;;13.85;100.00
18749;BME280;9503;53.560;10.246;2023-03-23T04:22:22;99403.75;;;13.69;100.00
18749;BME280;9503;53.560;10.246;2023-03-23T04:24:49;99401.56;;;13.96;100.00
18749;BME280;9503;53.560;10.246;2023-03-23T04:27:17;99416.19;;;14.00;100.00
18749;BME280;9503;53.560;10.246;2023-03-23T04:29:45;99420.22;;;13.80;100.00
18749;BME280;9503;53.560;10.246;2023-03-23T04:32:13;99428.00;;;13.83;100.00
18749;BME280;9503;53.560;10.246;2023-03-23T04:34:42;99424.81;;;13.42;100.00
18749;BME280;9503;53.560;10.246;2023-03-23T04:37:09;99417.47;;;13.66;100.00
18749;BME280;9503;53.560;10.246;2023-03-23T04:39:36;99424.31;;;13.14;100.00
18749;BME280;9503;53.560;10.246;2023-03-23T04:42:05;99423.66;;;13.80;100.00
18749;BME280;9503;53.560;10.246;2023-03-23T04:44:31;99433.47;;;14.07;100.00
18749;BME280;9503;53.560;10.246;2023-03-23T04:47:01;99439.06;;;13.21;100.00
18749;BME280;9503;53.560;10.246;2023-03-23T04:49:28;99432.84;;;13.63;100.00
18749;BME280;9503;53.560;10.246;2023-03-23T04:51:55;99419.34;;;13.79;100.00
18749;BME280;9503;53.560;10.246;2023-03-23T04:54:21;99424.16;;;13.57;100.00
18749;BME280;9503;53.560;10.246;2023-03-23T04:56:49;99418.38;;;13.71;100.00
18749;BME280;9503;53.560;10.246;2023-03-23T04:59:16;99412.47;;;13.78;100.00
18749;BME280;9503;53.560;10.246;2023-03-23T05:01:42;99411.31;;;13.58;100.00
18749;BME280;9503;53.560;10.246;2023-03-23T05:04:11;99416.66;;;13.16;100.00
18749;BME280;9503;53.560;10.246;2023-03-23T05:06:42;99409.78;;;13.69;100.00
18749;BME280;9503;53.560;10.246;2023-03-23T05:09:09;99413.88;;;13.58;100.00
18749;BME280;9503;53.560;10.246;2023-03-23T05:11:36;99407.59;;;13.38;100.00
18749;BME280;9503;53.560;10.246;2023-03-23T05:14:03;99396.72;;;13.57;100.00
18749;BME280;9503;53.560;10.246;2023-03-23T05:16:30;99400.09;;;13.53;100.00
18749;BME280;9503;53.560;10.246;2023-03-23T05:18:57;99401.72;;;13.48;100.00
18749;BME280;9503;53.560;10.246;2023-03-23T05:21:25;99407.09;;;13.63;100.00
18749;BME280;9503;53.560;10.246;2023-03-23T05:23:51;99402.97;;;13.74;100.00
18749;BME280;9503;53.560;10.246;2023-03-23T05:26:22;99394.41;;;13.77;100.00
18749;BME280;9503;53.560;10.246;2023-03-23T05:28:50;99397.78;;;13.73;100.00
18749;BME280;9503;53.560;10.246;2023-03-23T05:31:18;99401.09;;;14.28;100.00
18749;BME280;9503;53.560;10.246;2023-03-23T05:33:45;99403.50;;;14.14;100.00
18749;BME280;9503;53.560;10.246;2023-03-23T05:36:12;99406.72;;;13.96;100.00
18749;BME280;9503;53.560;10.246;2023-03-23T05:38:41;99398.81;;;13.84;100.00
18749;BME280;9503;53.560;10.246;2023-03-23T05:41:10;99408.38;;;13.94;100.00
18749;BME280;9503;53.560;10.246;2023-03-23T05:43:37;99395.75;;;14.14;100.00
18749;BME280;9503;53.560;10.246;2023-03-23T05:46:04;99405.88;;;13.99;100.00
18749;BME280;9503;53.560;10.246;2023-03-23T05:48:30;99408.19;;;13.80;100.00
18749;BME280;9503;53.560;10.246;2023-03-23T05:50:58;99404.81;;;13.81;100.00
18749;BME280;9503;53.560;10.246;2023-03-23T05:53:24;99395.84;;;14.22;100.00
18749;BME280;9503;53.560;10.246;2023-03-23T05:55:52;99408.94;;;14.38;100.00
18749;BME280;9503;53.560;10.246;2023-03-23T05:58:19;99405.50;;;13.71;100.00
18749;BME280;9503;53.560;10.246;2023-03-23T06:00:46;99393.88;;;14.01;100.00
18749;BME280;9503;53.560;10.246;2023-03-23T06:03:12;99390.66;;;13.52;100.00
18749;BME280;9503;53.560;10.246;2023-03-23T06:05:42;99395.94;;;14.29;100.00
18749;BME280;9503;53.560;10.246;2023-03-23T06:08:10;99395.91;;;13.60;100.00
18749;BME280;9503;53.560;10.246;2023-03-23T06:10:37;99403.44;;;13.47;100.00
18749;BME280;9503;53.560;10.246;2023-03-23T06:13:06;99388.88;;;14.12;100.00
18749;BME280;9503;53.560;10.246;2023-03-23T06:15:32;99395.00;;;14.24;100.00
18749;BME280;9503;53.560;10.246;2023-03-23T06:17:59;99388.53;;;13.86;100.00
18749;BME280;9503;53.560;10.246;2023-03-23T06:20:26;99397.72;;;14.35;100.00
18749;BME280;9503;53.560;10.246;2023-03-23T06:22:53;99395.56;;;13.99;100.00
18749;BME280;9503;53.560;10.246;2023-03-23T06:25:19;99398.59;;;14.35;100.00
18749;BME280;9503;53.560;10.246;2023-03-23T06:27:46;99395.09;;;14.32;100.00
18749;BME280;9503;53.560;10.246;2023-03-23T06:30:15;99396.06;;;14.40;100.00
18749;BME280;9503;53.560;10.246;2023-03-23T06:32:42;99397.06;;;14.50;100.00
18749;BME280;9503;53.560;10.246;2023-03-23T06:35:11;99394.22;;;14.30;100.00
18749;BME280;9503;53.560;10.246;2023-03-23T06:37:38;99401.22;;;14.40;100.00
18749;BME280;9503;53.560;10.246;2023-03-23T06:40:06;99401.56;;;13.96;100.00
18749;BME280;9503;53.560;10.246;2023-03-23T06:42:34;99394.84;;;14.86;100.00
18749;BME280;9503;53.560;10.246;2023-03-23T06:45:00;99398.78;;;14.51;100.00
18749;BME280;9503;53.560;10.246;2023-03-23T06:47:29;99404.34;;;14.13;100.00
18749;BME280;9503;53.560;10.246;2023-03-23T06:49:56;99409.28;;;14.66;100.00
18749;BME280;9503;53.560;10.246;2023-03-23T06:52:23;99413.06;;;15.00;100.00
18749;BME280;9503;53.560;10.246;2023-03-23T06:54:51;99409.66;;;15.06;100.00
18749;BME280;9503;53.560;10.246;2023-03-23T06:57:18;99403.97;;;14.54;100.00
18749;BME280;9503;53.560;10.246;2023-03-23T06:59:45;99403.31;;;14.02;100.00
18749;BME280;9503;53.560;10.246;2023-03-23T07:02:13;99405.31;;;14.99;100.00
18749;BME280;9503;53.560;10.246;2023-03-23T07:04:42;99404.25;;;14.81;100.00
18749;BME280;9503;53.560;10.246;2023-03-23T07:07:09;99412.75;;;14.70;100.00
18749;BME280;9503;53.560;10.246;2023-03-23T07:09:39;99406.88;;;14.84;100.00
18749;BME280;9503;53.560;10.246;2023-03-23T07:12:06;99402.59;;;14.89;100.00
18749;BME280;9503;53.560;10.246;2023-03-23T07:14:33;99401.88;;;15.01;100.00
18749;BME280;9503;53.560;10.246;2023-03-23T07:17:00;99395.09;;;15.15;100.00
18749;BME280;9503;53.560;10.246;2023-03-23T07:19:27;99388.69;;;15.85;100.00
18749;BME280;9503;53.560;10.246;2023-03-23T07:21:55;99401.59;;;15.77;99.13
18749;BME280;9503;53.560;10.246;2023-03-23T07:24:22;99402.53;;;15.87;97.42
18749;BME280;9503;53.560;10.246;2023-03-23T07:26:49;99406.25;;;14.28;100.00
18749;BME280;9503;53.560;10.246;2023-03-23T07:29:16;99414.97;;;15.21;100.00
18749;BME280;9503;53.560;10.246;2023-03-23T07:31:42;99404.78;;;15.42;100.00
18749;BME280;9503;53.560;10.246;2023-03-23T07:34:09;99411.38;;;15.07;100.00
18749;BME280;9503;53.560;10.246;2023-03-23T07:36:36;99407.22;;;15.24;100.00
18749;BME280;9503;53.560;10.246;2023-03-23T07:39:04;99415.88;;;15.32;100.00
18749;BME280;9503;53.560;10.246;2023-03-23T07:41:32;99405.84;;;15.69;99.05
18749;BME280;9503;53.560;10.246;2023-03-23T07:43:58;99420.66;;;14.88;100.00
18749;BME280;9503;53.560;10.246;2023-03-23T07:46:25;99408.59;;;15.96;98.72
18749;BME280;9503;53.560;10.246;2023-03-23T07:48:52;99417.78;;;15.56;99.76
18749;BME280;9503;53.560;10.246;2023-03-23T07:51:18;99418.97;;;16.06;97.21
18749;BME280;9503;53.560;10.246;2023-03-23T07:53:46;99423.50;;;15.14;98.04
18749;BME280;9503;53.560;10.246;2023-03-23T07:56:14;99410.84;;;15.46;99.61
18749;BME280;9503;53.560;10.246;2023-03-23T07:58:44;99424.06;;;15.93;98.11
18749;BME280;9503;53.560;10.246;2023-03-23T08:01:11;99418.47;;;15.29;100.00
18749;BME280;9503;53.560;10.246;2023-03-23T08:03:37;99418.81;;;15.72;99.62
18749;BME280;9503;53.560;10.246;2023-03-23T08:06:05;99420.88;;;15.08;100.00
18749;BME280;9503;53.560;10.246;2023-03-23T08:08:32;99417.53;;;15.21;100.00
18749;BME280;9503;53.560;10.246;2023-03-23T08:10:59;99428.63;;;15.12;100.00
18749;BME280;9503;53.560;10.246;2023-03-23T08:13:27;99422.81;;;15.38;100.00
18749;BME280;9503;53.560;10.246;2023-03-23T08:15:54;99418.94;;;15.99;99.07
18749;BME280;9503;53.560;10.246;2023-03-23T08:18:22;99414.03;;;15.16;99.49
18749;BME280;9503;53.560;10.246;2023-03-23T08:20:48;99423.50;;;15.17;100.00
18749;BME280;9503;53.560;10.246;2023-03-23T08:23:16;99425.09;;;15.03;100.00
18749;BME280;9503;53.560;10.246;2023-03-23T08:25:42;99432.22;;;15.28;100.00
18749;BME280;9503;53.560;10.246;2023-03-23T08:28:09;99436.78;;;14.67;100.00
18749;BME280;9503;53.560;10.246;2023-03-23T08:30:38;99428.91;;;14.53;100.00
18749;BME280;9503;53.560;10.246;2023-03-23T08:33:05;99443.63;;;14.62;100.00
18749;BME280;9503;53.560;10.246;2023-03-23T08:35:34;99437.38;;;14.45;100.00
18749;BME280;9503;53.560;10.246;2023-03-23T08:38:00;99458.28;;;14.68;100.00
18749;BME280;9503;53.560;10.246;2023-03-23T08:40:28;99455.41;;;14.43;100.00
18749;BME280;9503;53.560;10.246;2023-03-23T08:42:55;99464.53;;;14.89;100.00
18749;BME280;9503;53.560;10.246;2023-03-23T08:45:24;99474.28;;;15.15;100.00
18749;BME280;9503;53.560;10.246;2023-03-23T08:47:53;99478.06;;;14.64;100.00
18749;BME280;9503;53.560;10.246;2023-03-23T08:50:23;99470.03;;;14.44;100.00
18749;BME280;9503;53.560;10.246;2023-03-23T08:52:50;99467.72;;;14.64;100.00
18749;BME280;9503;53.560;10.246;2023-03-23T08:55:18;99438.72;;;14.86;100.00
18749;BME280;9503;53.560;10.246;2023-03-23T08:57:45;99452.34;;;14.73;100.00
18749;BME280;9503;53.560;10.246;2023-03-23T09:00:17;99459.94;;;14.59;100.00
18749;BME280;9503;53.560;10.246;2023-03-23T09:02:46;99460.69;;;14.51;100.00
18749;BME280;9503;53.560;10.246;2023-03-23T09:05:15;99471.47;;;14.24;100.00
18749;BME280;9503;53.560;10.246;2023-03-23T09:07:45;99471.44;;;14.90;100.00
18749;BME280;9503;53.560;10.246;2023-03-23T09:10:13;99477.22;;;14.67;100.00
18749;BME280;9503;53.560;10.246;2023-03-23T09:12:41;99481.22;;;15.20;100.00
18749;BME280;9503;53.560;10.246;2023-03-23T09:15:10;99478.66;;;15.25;100.00
18749;BME280;9503;53.560;10.246;2023-03-23T09:17:39;99475.94;;;15.11;100.00
18749;BME280;9503;53.560;10.246;2023-03-23T09:20:08;99472.25;;;14.85;99.05
18749;BME280;9503;53.560;10.246;2023-03-23T09:22:38;99485.34;;;15.05;99.28
18749;BME280;9503;53.560;10.246;2023-03-23T09:25:06;99487.69;;;14.83;100.00
18749;BME280;9503;53.560;10.246;2023-03-23T09:27:34;99473.84;;;14.74;97.33
18749;BME280;9503;53.560;10.246;2023-03-23T09:30:02;99486.97;;;14.92;97.73
18749;BME280;9503;53.560;10.246;2023-03-23T09:32:32;99499.09;;;14.99;95.79
18749;BME280;9503;53.560;10.246;2023-03-23T09:35:00;99505.97;;;15.00;95.37
18749;BME280;9503;53.560;10.246;2023-03-23T09:37:26;99508.72;;;15.20;95.16
18749;BME280;9503;53.560;10.246;2023-03-23T09:39:55;99515.41;;;14.98;95.94
18749;BME280;9503;53.560;10.246;2023-03-23T09:42:35;99519.97;;;15.20;95.33
18749;BME280;9503;53.560;10.246;2023-03-23T09:45:14;99518.31;;;15.30;94.69
18749;BME280;9503;53.560;10.246;2023-03-23T09:47:49;99514.81;;;15.22;93.48
18749;BME280;9503;53.560;10.246;2023-03-23T09:50:22;99514.88;;;15.33;93.51
18749;BME280;9503;53.560;10.246;2023-03-23T09:52:56;99528.69;;;14.57;94.59
18749;BME280;9503;53.560;10.246;2023-03-23T09:55:25;99526.56;;;14.97;96.36
18749;BME280;9503;53.560;10.246;2023-03-23T09:57:56;99529.38;;;15.18;94.46
18749;BME280;9503;53.560;10.246;2023-03-23T10:00:30;99529.47;;;14.52;97.34
18749;BME280;9503;53.560;10.246;2023-03-23T10:03:02;99531.94;;;15.14;95.57
18749;BME280;9503;53.560;10.246;2023-03-23T10:05:34;99537.84;;;15.04;94.75
18749;BME280;9503;53.560;10.246;2023-03-23T10:08:03;99540.47;;;15.10;94.33
18749;BME280;9503;53.560;10.246;2023-03-23T10:10:42;99535.09;;;15.75;93.17
18749;BME280;9503;53.560;10.246;2023-03-23T10:13:18;99547.53;;;15.25;93.29
18749;BME280;9503;53.560;10.246;2023-03-23T10:15:47;99546.31;;;15.75;91.73
18749;BME280;9503;53.560;10.246;2023-03-23T10:18:17;99548.78;;;15.63;89.64
18749;BME280;9503;53.560;10.246;2023-03-23T10:20:48;99545.63;;;16.01;89.97
18749;BME280;9503;53.560;10.246;2023-03-23T10:23:41;99548.28;;;16.09;87.04
18749;BME280;9503;53.560;10.246;2023-03-23T10:26:19;99555.91;;;15.92;87.63
18749;BME280;9503;53.560;10.246;2023-03-23T10:28:51;99556.41;;;16.71;86.00
18749;BME280;9503;53.560;10.246;2023-03-23T10:31:22;99553.66;;;16.42;86.07
18749;BME280;9503;53.560;10.246;2023-03-23T10:33:52;99565.97;;;16.83;84.79
18749;BME280;9503;53.560;10.246;2023-03-23T10:36:24;99561.78;;;17.20;81.62
18749;BME280;9503;53.560;10.246;2023-03-23T10:38:57;99558.03;;;16.57;83.73
18749;BME280;9503;53.560;10.246;2023-03-23T10:41:26;99550.47;;;16.95;82.54
18749;BME280;9503;53.560;10.246;2023-03-23T10:43:53;99546.19;;;17.17;80.25
18749;BME280;9503;53.560;10.246;2023-03-23T10:46:27;99551.75;;;16.09;84.65
18749;BME280;9503;53.560;10.246;2023-03-23T10:48:58;99559.44;;;16.03;86.12
18749;BME280;9503;53.560;10.246;2023-03-23T10:51:29;99565.25;;;15.74;85.70
18749;BME280;9503;53.560;10.246;2023-03-23T10:54:00;99578.13;;;15.71;86.02
18749;BME280;9503;53.560;10.246;2023-03-23T10:56:35;99587.28;;;16.39;83.92
18749;BME280;9503;53.560;10.246;2023-03-23T10:59:12;99582.59;;;15.89;84.14
18749;BME280;9503;53.560;10.246;2023-03-23T11:01:43;99570.94;;;16.48;82.55
18749;BME280;9503;53.560;10.246;2023-03-23T11:04:12;99574.50;;;15.56;84.10
18749;BME280;9503;53.560;10.246;2023-03-23T11:06:43;99577.84;;;16.52;82.47
18749;BME280;9503;53.560;10.246;2023-03-23T11:09:13;99576.84;;;16.24;82.57
18749;BME280;9503;53.560;10.246;2023-03-23T11:11:43;99578.16;;;17.25;80.48
18749;BME280;9503;53.560;10.246;2023-03-23T11:14:17;99578.97;;;16.98;80.62
18749;BME280;9503;53.560;10.246;2023-03-23T11:16:46;99584.81;;;16.61;80.78
18749;BME280;9503;53.560;10.246;2023-03-23T11:19:22;99578.66;;;16.40;81.89
18749;BME280;9503;53.560;10.246;2023-03-23T11:21:51;99582.16;;;16.50;83.38
18749;BME280;9503;53.560;10.246;2023-03-23T11:24:21;99577.75;;;16.35;83.16
18749;BME280;9503;53.560;10.246;2023-03-23T11:26:50;99591.50;;;16.23;83.67
18749;BME280;9503;53.560;10.246;2023-03-23T11:29:20;99576.84;;;16.30;82.97
18749;BME280;9503;53.560;10.246;2023-03-23T11:31:50;99584.69;;;16.41;82.93
18749;BME280;9503;53.560;10.246;2023-03-23T11:34:19;99586.97;;;15.96;83.93
18749;BME280;9503;53.560;10.246;2023-03-23T11:36:48;99577.88;;;16.55;84.43
18749;BME280;9503;53.560;10.246;2023-03-23T11:39:21;99583.78;;;16.36;83.95
18749;BME280;9503;53.560;10.246;2023-03-23T11:41:50;99588.63;;;17.63;80.45
18749;BME280;9503;53.560;10.246;2023-03-23T11:44:16;99596.34;;;17.45;81.10
18749;BME280;9503;53.560;10.246;2023-03-23T11:46:52;99587.38;;;16.57;81.80
18749;BME280;9503;53.560;10.246;2023-03-23T11:49:29;99593.63;;;16.93;83.18
18749;BME280;9503;53.560;10.246;2023-03-23T11:52:03;99609.75;;;16.48;84.79
18749;BME280;9503;53.560;10.246;2023-03-23T11:54:34;99593.59;;;16.84;83.10
18749;BME280;9503;53.560;10.246;2023-03-23T11:57:06;99595.94;;;16.52;84.35
18749;BME280;9503;53.560;10.246;2023-03-23T11:59:34;99598.84;;;17.07;82.24
18749;BME280;9503;53.560;10.246;2023-03-23T12:02:12;99593.81;;;17.57;81.11
18749;BME280;9503;53.560;10.246;2023-03-23T12:04:56;99604.22;;;17.94;78.30
18749;BME280;9503;53.560;10.246;2023-03-23T12:07:36;99609.84;;;16.62;82.65
18749;BME280;9503;53.560;10.246;2023-03-23T12:10:17;99611.78;;;16.98;82.28
18749;BME280;9503;53.560;10.246;2023-03-23T12:12:53;99610.97;;;17.12;80.71
18749;BME280;9503;53.560;10.246;2023-03-23T12:15:25;99616.50;;;16.27;82.86
18749;BME280;9503;53.560;10.246;2023-03-23T12:18:00;99621.00;;;16.57;82.14
18749;BME280;9503;53.560;10.246;2023-03-23T12:20:39;99614.53;;;17.48;80.41
18749;BME280;9503;53.560;10.246;2023-03-23T12:23:22;99617.59;;;16.62;83.17
18749;BME280;9503;53.560;10.246;2023-03-23T12:26:06;99622.31;;;17.68;82.87
18749;BME280;9503;53.560;10.246;2023-03-23T12:28:49;99624.41;;;16.52;85.53
18749;BME280;9503;53.560;10.246;2023-03-23T12:31:25;99626.22;;;16.67;86.54
18749;BME280;9503;53.560;10.246;2023-03-23T12:34:01;99617.84;;;17.09;85.13
18749;BME280;9503;53.560;10.246;2023-03-23T12:36:44;99624.34;;;16.38;84.72
18749;BME280;9503;53.560;10.246;2023-03-23T12:42:17;99606.50;;;16.75;86.49
18749;BME280;9503;53.560;10.246;2023-03-23T12:44:50;99610.97;;;17.22;84.34
18749;BME280;9503;53.560;10.246;2023-03-23T12:47:27;99607.41;;;16.92;87.64
18749;BME280;9503;53.560;10.246;2023-03-23T12:49:59;99609.94;;;16.77;89.46
18749;BME280;9503;53.560;10.246;2023-03-23T12:52:32;99620.59;;;15.99;94.64
18749;BME280;9503;53.560;10.246;2023-03-23T12:55:04;99608.75;;;16.29;93.02
18749;BME280;9503;53.560;10.246;2023-03-23T12:57:36;99612.56;;;15.67;93.78
18749;BME280;9503;53.560;10.246;2023-03-23T13:00:16;99595.66;;;16.05;93.19
18749;BME280;9503;53.560;10.246;2023-03-23T13:02:53;99608.84;;;16.44;93.22
18749;BME280;9503;53.560;10.246;2023-03-23T13:05:33;99602.69;;;16.25;92.83
18749;BME280;9503;53.560;10.246;2023-03-23T13:08:05;99584.31;;;15.90;91.29
18749;BME280;9503;53.560;10.246;2023-03-23T13:10:34;99597.97;;;17.00;90.38
18749;BME280;9503;53.560;10.246;2023-03-23T13:13:05;99594.44;;;16.86;88.98